createdAt,value
2018-12-01T00:00:43.915Z,105.73
2018-12-01T00:03:13.725Z,101.23
2018-12-01T00:05:58.509Z,102.13
2018-12-01T00:08:28.333Z,97.60
2018-12-01T00:10:58.028Z,100.53
2018-12-01T00:13:27.777Z,102.53
2018-12-01T00:15:57.588Z,100.60
2018-12-01T00:18:27.402Z,100.07
2018-12-01T00:20:57.301Z,98.17
2018-12-01T00:23:26.932Z,93.50
2018-12-01T00:25:56.562Z,94.60
2018-12-01T00:28:26.546Z,93.40
2018-12-01T00:30:56.246Z,89.53
2018-12-01T00:33:26.053Z,91.50
2018-12-01T00:35:55.738Z,89.87
2018-12-01T00:38:25.537Z,93.53
2018-12-01T00:40:55.225Z,89.40
2018-12-01T00:43:24.963Z,88.83
2018-12-01T00:45:54.713Z,86.83
2018-12-01T00:48:24.483Z,86.43
2018-12-01T00:50:54.333Z,89.07
2018-12-01T00:53:24.102Z,84.03
2018-12-01T00:55:53.963Z,86.00
2018-12-01T00:58:23.769Z,86.03
2018-12-01T01:00:53.528Z,84.90
2018-12-01T01:03:23.391Z,82.17
2018-12-01T01:05:53.202Z,83.70
2018-12-01T01:08:22.983Z,78.57
2018-12-01T01:10:52.830Z,77.30
2018-12-01T01:13:22.540Z,78.80
2018-12-01T01:15:52.351Z,77.23
2018-12-01T01:18:21.858Z,79.37
2018-12-01T01:20:51.663Z,77.33
2018-12-01T01:23:21.471Z,76.17
2018-12-01T01:25:51.241Z,76.03
2018-12-01T01:28:21.020Z,72.13
2018-12-01T01:30:50.802Z,73.10
2018-12-01T01:33:31.497Z,73.03
2018-12-01T01:36:01.568Z,71.60
2018-12-01T01:38:31.479Z,73.97
2018-12-01T01:41:06.172Z,71.70
2018-12-01T01:43:36.517Z,68.63
2018-12-01T01:46:06.331Z,70.17
2018-12-01T01:48:37.057Z,68.77
2018-12-01T01:51:07.119Z,71.27
2018-12-01T01:53:36.869Z,66.30
2018-12-01T01:56:06.817Z,68.23
2018-12-01T01:58:36.565Z,69.53
2018-12-01T02:01:06.642Z,66.20
2018-12-01T02:03:36.387Z,67.87
2018-12-01T02:06:06.505Z,66.23
2018-12-01T02:08:36.425Z,66.63
2018-12-01T02:11:06.510Z,65.77
2018-12-01T02:13:36.219Z,63.63
2018-12-01T02:16:06.058Z,67.00
2018-12-01T02:18:35.757Z,63.50
2018-12-01T02:21:06.398Z,62.23
2018-12-01T02:23:36.100Z,62.10
2018-12-01T02:26:05.995Z,63.83
2018-12-01T02:28:35.791Z,63.17
2018-12-01T02:31:05.679Z,59.40
2018-12-01T02:33:35.306Z,61.17
2018-12-01T02:36:04.992Z,61.23
2018-12-01T02:38:34.774Z,60.43
2018-12-01T02:41:04.687Z,60.57
2018-12-01T02:43:34.501Z,59.30
2018-12-01T02:47:12.715Z,58.70
2018-12-01T02:49:42.558Z,57.17
2018-12-01T02:52:12.273Z,57.17
2018-12-01T02:54:41.981Z,56.87
2018-12-01T02:57:11.620Z,54.73
2018-12-01T02:59:41.404Z,56.33
2018-12-01T03:02:11.176Z,53.60
2018-12-01T03:04:41.089Z,54.57
2018-12-01T03:07:10.901Z,55.30
2018-12-01T03:09:40.619Z,52.80
2018-12-01T03:12:10.417Z,54.07
2018-12-01T03:14:40.237Z,52.93
2018-12-01T03:17:10.072Z,52.37
2018-12-01T03:19:39.845Z,52.30
2018-12-01T03:22:09.668Z,51.57
2018-12-01T03:24:39.481Z,52.40
2018-12-01T03:27:09.338Z,52.53
2018-12-01T03:29:39.389Z,51.07
2018-12-01T03:32:09.046Z,51.80
2018-12-01T03:34:38.866Z,50.33
2018-12-01T03:37:08.577Z,50.97
2018-12-01T03:39:38.289Z,51.30
2018-12-01T03:42:08.093Z,48.37
2018-12-01T03:44:37.803Z,49.80
2018-12-01T03:47:07.510Z,47.43
2018-12-01T03:49:37.289Z,47.43
2018-12-01T03:52:07.187Z,48.97
2018-12-01T03:54:36.983Z,46.67
2018-12-01T03:57:06.836Z,47.50
2018-12-01T03:59:36.576Z,46.47
2018-12-01T04:02:06.588Z,47.40
2018-12-01T04:04:36.307Z,46.40
2018-12-01T04:07:06.341Z,47.73
2018-12-01T04:09:36.093Z,47.60
2018-12-01T04:12:06.004Z,47.03
2018-12-01T04:14:35.645Z,43.17
2018-12-01T04:17:05.649Z,47.87
2018-12-01T04:19:36.014Z,46.57
2018-12-01T04:22:05.957Z,45.07
2018-12-01T04:24:35.781Z,43.63
2018-12-01T04:27:05.672Z,45.00
2018-12-01T04:29:35.399Z,42.50
2018-12-01T04:32:05.214Z,43.50
2018-12-01T04:34:35.530Z,44.60
2018-12-01T04:37:05.360Z,43.73
2018-12-01T04:39:35.002Z,41.30
2018-12-01T04:42:04.596Z,41.97
2018-12-01T04:44:34.302Z,45.53
2018-12-01T04:47:04.056Z,43.13
2018-12-01T04:49:33.872Z,40.47
2018-12-01T04:52:03.710Z,41.93
2018-12-01T04:54:33.488Z,41.50
2018-12-01T04:57:03.330Z,43.23
2018-12-01T04:59:33.120Z,40.83
2018-12-01T05:02:03.012Z,42.33
2018-12-01T05:04:32.876Z,39.43
2018-12-01T05:07:02.671Z,40.83
2018-12-01T05:09:32.454Z,37.53
2018-12-01T05:12:02.469Z,38.80
2018-12-01T05:14:32.244Z,39.00
2018-12-01T05:17:02.093Z,38.37
2018-12-01T05:19:31.878Z,38.30
2018-12-01T05:22:01.650Z,38.23
2018-12-01T05:24:31.393Z,37.60
2018-12-01T05:27:01.345Z,39.90
2018-12-01T05:29:31.186Z,38.93
2018-12-01T05:32:00.997Z,37.87
2018-12-01T05:34:30.742Z,37.87
2018-12-01T05:37:00.475Z,36.27
2018-12-01T05:39:30.260Z,36.43
2018-12-01T05:42:00.038Z,37.40
2018-12-01T05:44:29.773Z,37.17
2018-12-01T05:46:59.556Z,54.97
2018-12-01T05:49:29.369Z,67.53
2018-12-01T05:51:59.154Z,99.43
2018-12-01T05:54:28.897Z,113.00
2018-12-01T05:56:58.695Z,121.93
2018-12-01T05:59:28.484Z,126.40
2018-12-01T06:01:58.381Z,162.23
2018-12-01T06:04:28.203Z,96.83
2018-12-01T06:06:58.509Z,138.10
2018-12-01T06:09:28.377Z,157.73
2018-12-01T06:11:58.093Z,138.93
2018-12-01T06:14:27.885Z,140.97
2018-12-01T06:16:57.545Z,110.77
2018-12-01T06:19:27.476Z,119.70
2018-12-01T06:21:57.197Z,101.90
2018-12-01T06:24:27.023Z,116.60
2018-12-01T06:26:57.553Z,122.77
2018-12-01T06:29:27.358Z,105.80
2018-12-01T06:31:57.109Z,105.73
2018-12-01T06:34:26.918Z,103.23
2018-12-01T06:36:56.721Z,110.70
2018-12-01T06:39:26.524Z,98.70
2018-12-01T06:41:56.220Z,99.77
2018-12-01T06:44:25.973Z,114.43
2018-12-01T06:46:55.845Z,103.40
2018-12-01T06:49:25.656Z,100.17
2018-12-01T06:51:55.630Z,99.63
2018-12-01T06:54:25.505Z,94.87
2018-12-01T06:56:55.265Z,110.13
2018-12-01T06:59:25.094Z,101.90
2018-12-01T07:01:54.881Z,101.47
2018-12-01T07:04:24.719Z,100.07
2018-12-01T07:06:54.510Z,101.97
2018-12-01T07:09:24.353Z,103.40
2018-12-01T07:11:54.134Z,97.10
2018-12-01T07:14:23.954Z,98.87
2018-12-01T07:16:53.946Z,95.27
2018-12-01T07:19:23.673Z,99.83
2018-12-01T07:21:53.478Z,92.90
2018-12-01T07:24:23.229Z,97.13
2018-12-01T07:26:53.585Z,92.70
2018-12-01T07:29:23.433Z,85.23
2018-12-01T07:31:53.267Z,87.00
2018-12-01T07:34:23.045Z,90.03
2018-12-01T07:36:52.942Z,88.57
2018-12-01T07:39:22.737Z,89.83
2018-12-01T07:41:52.473Z,88.87
2018-12-01T07:44:22.269Z,85.80
2018-12-01T07:46:52.067Z,88.70
2018-12-01T07:49:21.697Z,83.17
2018-12-01T07:51:51.488Z,82.60
2018-12-01T07:54:21.263Z,79.33
2018-12-01T07:56:51.080Z,80.67
2018-12-01T07:59:20.887Z,77.50
2018-12-01T08:01:50.700Z,79.97
2018-12-01T08:04:20.493Z,78.87
2018-12-01T08:06:50.293Z,77.73
2018-12-01T08:09:20.132Z,77.37
2018-12-01T08:11:49.906Z,76.27
2018-12-01T08:14:19.689Z,76.27
2018-12-01T08:16:49.570Z,74.77
2018-12-01T08:19:19.380Z,74.97
2018-12-01T08:21:49.159Z,74.10
2018-12-01T08:24:19.137Z,70.80
2018-12-01T08:26:48.842Z,72.73
2018-12-01T08:29:18.601Z,72.80
2018-12-01T08:31:48.361Z,70.47
2018-12-01T08:34:18.149Z,71.80
2018-12-01T08:36:47.756Z,69.93
2018-12-01T08:39:17.505Z,68.10
2018-12-01T08:41:47.209Z,69.60
2018-12-01T08:44:16.815Z,70.10
2018-12-01T08:46:46.517Z,69.90
2018-12-01T08:49:16.203Z,67.27
2018-12-01T08:51:45.972Z,68.00
2018-12-01T08:54:15.653Z,65.47
2018-12-01T08:56:45.482Z,67.40
2018-12-01T08:59:15.277Z,66.63
2018-12-01T09:01:44.985Z,65.47
2018-12-01T09:04:14.705Z,63.40
2018-12-01T09:06:44.584Z,63.73
2018-12-01T09:09:14.388Z,63.63
2018-12-01T09:11:44.956Z,59.73
2018-12-01T09:14:14.857Z,60.07
2018-12-01T09:16:44.701Z,62.00
2018-12-01T09:19:14.555Z,61.80
2018-12-01T09:21:44.292Z,62.03
2018-12-01T09:24:13.985Z,60.77
2018-12-01T09:26:43.819Z,59.57
2018-12-01T09:29:14.606Z,59.80
2018-12-01T09:31:44.392Z,60.33
2018-12-01T09:34:14.301Z,57.80
2018-12-01T09:36:44.090Z,57.53
2018-12-01T09:39:13.757Z,58.43
2018-12-01T09:41:43.548Z,58.50
2018-12-01T09:44:13.373Z,56.17
2018-12-01T09:46:43.161Z,57.57
2018-12-01T09:49:12.940Z,54.97
2018-12-01T09:51:42.657Z,54.43
2018-12-01T09:56:02.995Z,54.43
2018-12-01T09:58:32.770Z,55.93
2018-12-01T10:01:02.745Z,54.40
2018-12-01T10:03:32.333Z,51.63
2018-12-01T10:06:02.169Z,53.20
2018-12-01T10:08:31.877Z,51.30
2018-12-01T10:11:01.686Z,51.57
2018-12-01T10:13:31.503Z,51.27
2018-12-01T10:16:01.397Z,49.93
2018-12-01T10:18:31.193Z,51.33
2018-12-01T10:21:01.123Z,48.33
2018-12-01T10:23:30.921Z,48.60
2018-12-01T10:26:00.689Z,52.60
2018-12-01T10:28:30.439Z,47.73
2018-12-01T10:31:00.312Z,49.37
2018-12-01T10:33:30.032Z,52.03
2018-12-01T10:35:59.730Z,52.73
2018-12-01T10:38:29.448Z,52.07
2018-12-01T10:40:59.325Z,49.70
2018-12-01T10:43:29.036Z,48.67
2018-12-01T10:45:58.691Z,52.97
2018-12-01T10:48:28.401Z,54.63
2018-12-01T10:50:58.010Z,47.50
2018-12-01T10:53:27.703Z,49.13
2018-12-01T10:55:57.580Z,48.47
2018-12-01T10:58:27.389Z,47.33
2018-12-01T11:01:02.333Z,46.00
2018-12-01T11:03:37.084Z,45.23
2018-12-01T11:06:10.594Z,45.87
2018-12-01T11:08:40.292Z,48.07
2018-12-01T11:11:10.151Z,44.23
2018-12-01T11:13:40.658Z,48.17
2018-12-01T11:16:10.602Z,49.40
2018-12-01T11:18:40.356Z,46.77
2018-12-01T11:21:10.094Z,46.23
2018-12-01T11:23:39.761Z,43.13
2018-12-01T11:26:09.589Z,45.10
2018-12-01T11:28:39.149Z,46.90
2018-12-01T11:31:08.904Z,54.03
2018-12-01T11:33:38.496Z,48.40
2018-12-01T11:36:08.216Z,48.83
2018-12-01T11:38:37.882Z,52.10
2018-12-01T11:41:07.592Z,43.27
2018-12-01T11:43:37.321Z,45.97
2018-12-01T11:46:07.113Z,48.40
2018-12-01T11:48:36.788Z,45.23
2018-12-01T11:51:06.773Z,46.80
2018-12-01T11:53:36.511Z,44.73
2018-12-01T11:56:06.497Z,41.50
2018-12-01T11:58:36.641Z,43.03
2018-12-01T12:01:06.794Z,42.80
2018-12-01T12:03:36.508Z,45.13
2018-12-01T12:06:06.418Z,42.67
2018-12-01T12:08:36.490Z,40.50
2018-12-01T12:11:06.205Z,40.97
2018-12-01T12:13:35.889Z,41.83
2018-12-01T12:16:06.045Z,40.17
2018-12-01T12:18:35.897Z,39.97
2018-12-01T12:21:05.806Z,42.60
2018-12-01T12:23:35.569Z,39.60
2018-12-01T12:26:05.490Z,40.67
2018-12-01T12:28:35.166Z,38.60
2018-12-01T12:31:04.981Z,42.03
2018-12-01T12:33:34.692Z,38.43
2018-12-01T12:36:04.294Z,38.03
2018-12-01T12:38:34.025Z,41.70
2018-12-01T12:41:03.783Z,36.40
2018-12-01T12:43:33.580Z,37.83
2018-12-01T12:46:03.373Z,36.73
2018-12-01T12:48:33.173Z,38.00
2018-12-01T12:51:02.961Z,36.53
2018-12-01T12:53:32.694Z,38.83
2018-12-01T12:56:02.549Z,37.30
2018-12-01T12:58:32.350Z,36.40
2018-12-01T13:01:02.070Z,36.13
2018-12-01T13:03:31.879Z,37.37
2018-12-01T13:06:01.697Z,35.37
2018-12-01T13:08:31.464Z,37.70
2018-12-01T13:11:01.409Z,35.57
2018-12-01T13:13:31.184Z,34.07
2018-12-01T13:16:01.013Z,34.83
2018-12-01T13:18:30.809Z,36.87
2018-12-01T13:21:00.592Z,34.27
2018-12-01T13:23:30.307Z,35.57
2018-12-01T13:26:00.081Z,34.70
2018-12-01T13:28:29.893Z,34.57
2018-12-01T13:31:00.630Z,32.30
2018-12-01T13:33:30.436Z,34.67
2018-12-01T13:36:00.243Z,36.43
2018-12-01T13:38:30.022Z,35.27
2018-12-01T13:40:59.960Z,33.33
2018-12-01T13:43:29.712Z,33.90
2018-12-01T13:45:59.477Z,32.30
2018-12-01T13:48:29.229Z,33.20
2018-12-01T13:50:58.836Z,34.20
2018-12-01T13:53:28.575Z,31.67
2018-12-01T13:55:58.277Z,31.20
2018-12-01T13:58:28.108Z,32.37
2018-12-01T14:00:57.753Z,32.23
2018-12-01T14:03:27.505Z,31.73
2018-12-01T14:05:57.167Z,30.00
2018-12-01T14:08:26.864Z,31.90
2018-12-01T14:10:56.616Z,33.77
2018-12-01T14:13:26.377Z,31.60
2018-12-01T14:15:56.166Z,32.17
2018-12-01T14:18:25.982Z,31.17
2018-12-01T14:20:55.761Z,32.17
2018-12-01T14:23:25.489Z,33.63
2018-12-01T14:25:55.166Z,33.60
2018-12-01T14:28:24.787Z,32.37
2018-12-01T14:30:54.968Z,32.20
2018-12-01T14:33:24.845Z,30.07
2018-12-01T14:35:55.259Z,31.90
2018-12-01T14:38:24.849Z,30.50
2018-12-01T14:40:54.577Z,30.70
2018-12-01T14:43:24.358Z,32.20
2018-12-01T14:45:54.128Z,31.63
2018-12-01T14:48:24.097Z,31.80
2018-12-01T14:50:54.171Z,31.60
2018-12-01T14:53:23.999Z,30.80
2018-12-01T14:55:53.758Z,28.90
2018-12-01T14:58:23.593Z,31.53
2018-12-01T15:00:53.276Z,30.90
2018-12-01T15:03:23.114Z,28.93
2018-12-01T15:05:52.874Z,29.30
2018-12-01T15:08:22.602Z,28.63
2018-12-01T15:10:52.457Z,30.80
2018-12-01T15:13:22.169Z,28.17
2018-12-01T15:15:51.985Z,30.70
2018-12-01T15:18:21.792Z,31.07
2018-12-01T15:20:51.598Z,27.67
2018-12-01T15:23:21.291Z,29.03
2018-12-01T15:25:51.025Z,28.43
2018-12-01T15:28:20.883Z,29.53
2018-12-01T15:30:50.669Z,29.47
2018-12-01T15:33:20.416Z,28.97
2018-12-01T15:35:50.128Z,28.13
2018-12-01T15:38:19.964Z,29.87
2018-12-01T15:40:51.420Z,27.83
2018-12-01T15:43:21.170Z,31.17
2018-12-01T15:45:50.876Z,28.97
2018-12-01T15:48:20.605Z,28.90
2018-12-01T15:50:50.295Z,28.90
2018-12-01T15:53:20.024Z,28.13
2018-12-01T15:55:49.877Z,29.73
2018-12-01T15:58:19.594Z,28.40
2018-12-01T16:00:49.359Z,28.27
2018-12-01T16:03:19.212Z,30.23
2018-12-01T16:05:48.921Z,29.97
2018-12-01T16:08:18.708Z,27.90
2018-12-01T16:10:48.540Z,27.83
2018-12-01T16:13:19.960Z,30.93
2018-12-01T16:16:09.525Z,27.87
2018-12-01T16:18:39.274Z,30.83
2018-12-01T16:21:08.996Z,26.17
2018-12-01T16:23:38.621Z,28.77
2018-12-01T16:26:08.365Z,29.13
2018-12-01T16:28:38.108Z,28.43
2018-12-01T16:31:07.853Z,27.90
2018-12-01T16:33:37.535Z,28.40
2018-12-01T16:36:07.648Z,27.90
2018-12-01T16:38:37.657Z,29.40
2018-12-01T16:41:15.322Z,27.57
2018-12-01T16:43:45.162Z,30.10
2018-12-01T16:46:14.841Z,27.67
2018-12-01T16:48:44.686Z,30.03
2018-12-01T16:51:14.468Z,29.00
2018-12-01T16:53:44.297Z,25.70
2018-12-01T16:56:14.057Z,29.70
2018-12-01T16:58:43.790Z,26.97
2018-12-01T17:01:13.610Z,27.13
2018-12-01T17:03:43.433Z,27.77
2018-12-01T17:06:16.110Z,25.70
2018-12-01T17:08:45.905Z,29.90
2018-12-01T17:11:15.697Z,29.37
2018-12-01T17:13:45.575Z,26.20
2018-12-01T17:16:15.357Z,28.87
2018-12-01T17:18:45.296Z,29.27
2018-12-01T17:21:15.120Z,29.00
2018-12-01T17:23:44.880Z,28.97
2018-12-01T17:26:14.697Z,26.87
2018-12-01T17:28:44.473Z,25.97
2018-12-01T17:31:14.176Z,27.13
2018-12-01T17:33:44.688Z,26.37
2018-12-01T17:36:14.449Z,28.77
2018-12-01T17:38:44.193Z,25.77
2018-12-01T17:41:17.897Z,26.27
2018-12-01T17:43:51.292Z,26.90
2018-12-01T17:46:21.405Z,28.20
2018-12-01T17:48:51.415Z,25.90
2018-12-01T17:51:21.177Z,26.93
2018-12-01T17:53:52.837Z,26.93
2018-12-01T17:56:22.577Z,29.53
2018-12-01T17:58:52.410Z,26.77
2018-12-01T18:01:22.226Z,29.87
2018-12-01T18:03:52.041Z,27.77
2018-12-01T18:06:21.825Z,28.27
2018-12-01T18:08:51.662Z,26.20
2018-12-01T18:11:21.449Z,27.50
2018-12-01T18:13:51.277Z,26.60
2018-12-01T18:16:20.929Z,26.40
2018-12-01T18:18:50.653Z,27.33
2018-12-01T18:21:20.417Z,25.87
2018-12-01T18:23:50.228Z,27.17
2018-12-01T18:26:19.937Z,26.67
2018-12-01T18:28:50.882Z,28.13
2018-12-01T18:31:23.245Z,26.93
2018-12-01T18:34:05.850Z,26.37
2018-12-01T18:36:35.736Z,25.53
2018-12-01T18:39:08.752Z,26.60
2018-12-01T18:41:38.369Z,26.17
2018-12-01T18:44:08.125Z,27.33
2018-12-01T18:46:37.981Z,25.23
2018-12-01T18:49:07.789Z,24.80
2018-12-01T18:51:37.529Z,26.70
2018-12-01T18:54:07.374Z,27.27
2018-12-01T18:56:37.209Z,28.20
2018-12-01T18:59:07.300Z,25.53
2018-12-01T19:01:37.113Z,25.43
2018-12-01T19:04:06.897Z,27.87
2018-12-01T19:06:36.609Z,26.67
2018-12-01T19:09:08.015Z,29.27
2018-12-01T19:11:37.789Z,25.10
2018-12-01T19:14:07.846Z,23.93
2018-12-01T19:16:37.655Z,27.23
2018-12-01T19:19:07.437Z,26.13
2018-12-01T19:21:37.269Z,24.60
2018-12-01T19:24:06.986Z,28.27
2018-12-01T19:26:36.768Z,25.77
2018-12-01T19:29:07.228Z,25.83
2018-12-01T19:31:36.969Z,25.57
2018-12-01T19:34:07.256Z,27.50
2018-12-01T19:36:36.888Z,23.97
2018-12-01T19:39:08.242Z,26.80
2018-12-01T19:41:37.965Z,24.97
2018-12-01T19:44:08.294Z,25.30
2018-12-01T19:46:37.975Z,26.53
2018-12-01T19:49:07.833Z,26.23
2018-12-01T19:51:37.620Z,24.10
2018-12-01T19:54:07.716Z,26.33
2018-12-01T19:56:37.958Z,23.93
2018-12-01T19:59:06.595Z,27.53
2018-12-01T20:01:35.120Z,27.30
2018-12-01T20:04:04.683Z,25.30
2018-12-01T20:06:34.505Z,26.13
2018-12-01T20:09:04.465Z,26.33
2018-12-01T20:11:34.228Z,25.27
2018-12-01T20:14:04.749Z,27.57
2018-12-01T20:16:37.767Z,26.03
2018-12-01T20:19:08.091Z,25.63
2018-12-01T20:21:37.831Z,26.80
2018-12-01T20:24:08.405Z,25.53
2018-12-01T20:26:39.089Z,24.67
2018-12-01T20:29:08.942Z,24.90
2018-12-01T20:31:38.659Z,24.10
2018-12-01T20:34:08.671Z,24.37
2018-12-01T20:36:45.442Z,27.63
2018-12-01T20:39:18.393Z,28.07
2018-12-01T20:41:48.182Z,27.40
2018-12-01T20:44:17.920Z,25.50
2018-12-01T20:46:47.519Z,24.43
2018-12-01T20:49:17.321Z,25.57
2018-12-01T20:51:46.924Z,27.10
2018-12-01T20:54:27.281Z,25.63
2018-12-01T20:57:00.865Z,27.87
2018-12-01T20:59:30.890Z,28.70
2018-12-01T21:02:00.933Z,25.53
2018-12-01T21:04:30.741Z,24.40
2018-12-01T21:07:01.376Z,26.80
2018-12-01T21:09:32.139Z,24.33
2018-12-01T21:12:02.300Z,26.20
2018-12-01T21:14:32.076Z,24.83
2018-12-01T21:17:01.886Z,25.60
2018-12-01T21:19:31.737Z,25.90
2018-12-01T21:22:01.433Z,27.13
2018-12-01T21:24:31.200Z,27.77
2018-12-01T21:27:01.021Z,24.63
2018-12-01T21:29:30.772Z,27.80
2018-12-01T21:32:00.510Z,26.87
2018-12-01T21:34:30.253Z,25.80
2018-12-01T21:37:00.063Z,24.00
2018-12-01T21:39:29.873Z,26.07
2018-12-01T21:41:59.573Z,26.07
2018-12-01T21:44:29.397Z,27.00
2018-12-01T21:46:59.099Z,26.00
2018-12-01T21:49:28.886Z,55.53
2018-12-01T21:51:58.617Z,70.47
2018-12-01T21:54:28.432Z,59.37
2018-12-01T21:56:58.221Z,133.27
2018-12-01T21:59:27.958Z,99.47
2018-12-01T22:01:57.665Z,87.77
2018-12-01T22:04:27.476Z,78.23
2018-12-01T22:06:57.262Z,80.57
2018-12-01T22:09:27.087Z,79.70
2018-12-01T22:11:56.868Z,75.87
2018-12-01T22:14:26.704Z,108.70
2018-12-01T22:16:56.705Z,121.33
2018-12-01T22:19:26.539Z,104.00
2018-12-01T22:21:56.322Z,100.73
2018-12-01T22:24:26.159Z,104.77
2018-12-01T22:26:55.948Z,98.83
2018-12-01T22:29:25.817Z,92.07
2018-12-01T22:31:55.674Z,85.43
2018-12-01T22:34:26.593Z,95.17
2018-12-01T22:36:56.329Z,155.87
2018-12-01T22:39:25.229Z,121.93
2018-12-01T22:41:55.115Z,120.47
2018-12-01T22:44:24.797Z,109.23
2018-12-01T22:46:54.641Z,110.50
2018-12-01T22:49:24.421Z,100.07
2018-12-01T22:51:53.988Z,98.23
2018-12-01T22:54:23.761Z,99.90
2018-12-01T22:56:53.433Z,88.00
2018-12-01T22:59:23.070Z,88.77
2018-12-01T23:01:53.369Z,86.83
2018-12-01T23:04:23.077Z,82.97
2018-12-01T23:06:52.830Z,85.00
2018-12-01T23:09:22.663Z,81.17
2018-12-01T23:11:52.426Z,77.13
2018-12-01T23:14:22.218Z,79.37
2018-12-01T23:16:51.992Z,71.50
2018-12-01T23:19:21.805Z,70.87
2018-12-01T23:21:51.471Z,72.50
2018-12-01T23:24:21.306Z,108.77
2018-12-01T23:26:51.030Z,145.60
2018-12-01T23:29:20.905Z,133.47
2018-12-01T23:31:50.652Z,98.70
2018-12-01T23:34:20.365Z,96.73
2018-12-01T23:36:50.172Z,99.13
2018-12-01T23:39:19.885Z,90.33
2018-12-01T23:41:49.662Z,98.23
2018-12-01T23:44:32.202Z,90.30
2018-12-01T23:47:01.945Z,87.37
2018-12-01T23:49:31.649Z,85.73
2018-12-01T23:52:01.468Z,85.20
2018-12-01T23:54:31.244Z,81.67
2018-12-01T23:57:01.040Z,85.83
2018-12-01T23:59:30.665Z,80.17
